createdAt,value
2023-03-29T00:00:07.194Z,4.28
2023-03-29T00:01:07.192Z,4.21
2023-03-29T00:02:07.187Z,4.18
2023-03-29T00:03:07.391Z,4.10
2023-03-29T00:04:07.272Z,4.06
2023-03-29T00:05:07.154Z,4.03
2023-03-29T00:06:07.151Z,4.15
2023-03-29T00:07:07.140Z,4.16
2023-03-29T00:08:07.138Z,4.06
2023-03-29T00:09:07.120Z,4.14
2023-03-29T00:10:07.129Z,4.04
2023-03-29T00:11:07.127Z,4.07
2023-03-29T00:12:07.127Z,4.04
2023-03-29T00:13:07.102Z,4.12
2023-03-29T00:14:07.091Z,4.15
2023-03-29T00:15:07.090Z,4.06
2023-03-29T00:16:07.090Z,4.08
2023-03-29T00:17:07.160Z,4.15
2023-03-29T00:18:07.143Z,4.08
2023-03-29T00:19:07.048Z,4.14
2023-03-29T00:20:07.061Z,4.06
2023-03-29T00:21:07.159Z,4.08
2023-03-29T00:22:07.039Z,4.06
2023-03-29T00:23:07.036Z,4.14
2023-03-29T00:24:07.045Z,4.08
2023-03-29T00:25:07.015Z,4.06
2023-03-29T00:26:08.090Z,4.06
2023-03-29T00:27:08.020Z,3.98
2023-03-29T00:28:06.999Z,4.01
2023-03-29T00:29:07.004Z,3.97
2023-03-29T00:30:06.999Z,4.00
2023-03-29T00:31:07.039Z,4.07
2023-03-29T00:32:06.972Z,4.00
2023-03-29T00:33:07.003Z,4.03
2023-03-29T00:34:06.968Z,4.01
2023-03-29T00:35:06.941Z,4.06
2023-03-29T00:36:07.058Z,3.96
2023-03-29T00:37:06.971Z,4.04
2023-03-29T00:38:06.926Z,4.03
2023-03-29T00:39:06.912Z,3.89
2023-03-29T00:40:06.911Z,3.89
2023-03-29T00:41:06.958Z,4.00
2023-03-29T00:42:06.910Z,4.01
2023-03-29T00:43:07.004Z,3.98
2023-03-29T00:44:06.909Z,3.89
2023-03-29T00:45:06.889Z,3.98
2023-03-29T00:46:06.893Z,3.98
2023-03-29T00:47:06.880Z,3.90
2023-03-29T00:48:06.902Z,4.00
2023-03-29T00:49:06.861Z,3.97
2023-03-29T00:50:06.870Z,3.94
2023-03-29T00:51:09.794Z,4.03
2023-03-29T00:52:06.858Z,3.97
2023-03-29T00:53:06.821Z,3.98
2023-03-29T00:54:06.816Z,3.96
2023-03-29T00:55:06.852Z,4.00
2023-03-29T00:56:06.808Z,3.88
2023-03-29T00:57:07.051Z,3.98
2023-03-29T00:58:06.837Z,3.92
2023-03-29T00:59:06.792Z,4.00
2023-03-29T01:00:06.820Z,4.03
2023-03-29T01:01:06.779Z,3.97
2023-03-29T01:02:06.867Z,3.97
2023-03-29T01:03:06.837Z,3.90
2023-03-29T01:04:06.798Z,3.98
2023-03-29T01:05:06.751Z,4.00
2023-03-29T01:06:06.741Z,3.94
2023-03-29T01:07:06.865Z,3.94
2023-03-29T01:08:06.739Z,3.92
2023-03-29T01:09:06.731Z,3.96
2023-03-29T01:10:06.715Z,3.86
2023-03-29T01:11:06.715Z,3.90
2023-03-29T01:12:06.732Z,3.92
2023-03-29T01:13:06.714Z,3.89
2023-03-29T01:14:06.690Z,3.94
2023-03-29T01:15:06.684Z,3.94
2023-03-29T01:16:06.700Z,3.94
2023-03-29T01:17:06.685Z,3.89
2023-03-29T01:18:06.732Z,3.98
2023-03-29T01:19:06.658Z,3.86
2023-03-29T01:20:07.662Z,3.85
2023-03-29T01:21:06.667Z,3.90
2023-03-29T01:22:06.638Z,3.89
2023-03-29T01:23:06.670Z,3.98
2023-03-29T01:24:06.705Z,3.92
2023-03-29T01:25:06.624Z,3.97
2023-03-29T01:26:06.615Z,3.97
2023-03-29T01:27:06.608Z,3.94
2023-03-29T01:28:06.613Z,3.89
2023-03-29T01:29:06.660Z,3.98
2023-03-29T01:30:06.596Z,3.94
2023-03-29T01:31:06.586Z,3.96
2023-03-29T01:32:06.627Z,3.86
2023-03-29T01:33:06.638Z,3.98
2023-03-29T01:34:06.577Z,3.94
2023-03-29T01:35:06.569Z,3.98
2023-03-29T01:36:06.572Z,3.94
2023-03-29T01:37:06.547Z,3.96
2023-03-29T01:38:06.548Z,4.00
2023-03-29T01:39:06.531Z,3.96
2023-03-29T01:40:06.523Z,3.94
2023-03-29T01:41:06.512Z,4.00
2023-03-29T01:42:06.646Z,3.98
2023-03-29T01:43:06.535Z,3.86
2023-03-29T01:44:06.511Z,3.92
2023-03-29T01:45:06.503Z,3.96
2023-03-29T01:46:06.510Z,3.97
2023-03-29T01:47:06.475Z,3.97
2023-03-29T01:48:06.528Z,3.92
2023-03-29T01:49:06.486Z,3.98
2023-03-29T01:50:06.468Z,3.97
2023-03-29T01:51:06.459Z,3.97
2023-03-29T01:52:06.440Z,3.83
2023-03-29T01:53:06.452Z,3.92
2023-03-29T01:54:06.441Z,3.83
2023-03-29T01:55:06.430Z,3.92
2023-03-29T01:56:06.448Z,3.90
2023-03-29T01:57:06.462Z,4.01
2023-03-29T01:58:06.431Z,4.00
2023-03-29T01:59:06.429Z,3.94
2023-03-29T02:00:06.393Z,4.01
2023-03-29T02:01:06.401Z,4.04
2023-03-29T02:02:06.384Z,4.06
2023-03-29T02:03:06.474Z,4.04
2023-03-29T02:04:06.391Z,4.04
2023-03-29T02:05:06.368Z,3.98
2023-03-29T02:06:07.366Z,4.08
2023-03-29T02:07:06.366Z,4.07
2023-03-29T02:08:06.346Z,4.01
2023-03-29T02:09:06.365Z,4.03
2023-03-29T02:10:06.331Z,4.01
2023-03-29T02:11:06.318Z,3.98
2023-03-29T02:12:06.310Z,3.90
2023-03-29T02:13:07.314Z,3.89
2023-03-29T02:14:06.321Z,3.92
2023-03-29T02:15:06.310Z,3.92
2023-03-29T02:16:06.320Z,3.88
2023-03-29T02:17:06.295Z,3.97
2023-03-29T02:18:06.384Z,3.97
2023-03-29T02:19:06.274Z,4.07
2023-03-29T02:20:06.337Z,3.98
2023-03-29T02:21:06.261Z,4.12
2023-03-29T02:22:06.251Z,4.06
2023-03-29T02:23:06.247Z,4.00
2023-03-29T02:24:06.236Z,4.00
2023-03-29T02:25:06.260Z,4.07
2023-03-29T02:26:06.222Z,3.94
2023-03-29T02:27:06.196Z,4.01
2023-03-29T02:28:07.214Z,4.01
2023-03-29T02:29:06.209Z,4.01
2023-03-29T02:30:06.213Z,4.03
2023-03-29T02:31:06.242Z,3.97
2023-03-29T02:32:06.185Z,3.94
2023-03-29T02:33:06.265Z,4.03
2023-03-29T02:34:06.177Z,3.97
2023-03-29T02:35:06.171Z,4.00
2023-03-29T02:36:06.193Z,3.97
2023-03-29T02:37:06.149Z,3.97
2023-03-29T02:38:06.150Z,4.01
2023-03-29T02:39:06.304Z,4.01
2023-03-29T02:40:06.177Z,3.97
2023-03-29T02:41:06.126Z,4.01
2023-03-29T02:42:06.122Z,4.07
2023-03-29T02:43:06.119Z,4.08
2023-03-29T02:44:06.134Z,3.98
2023-03-29T02:45:06.098Z,4.07
2023-03-29T02:46:06.138Z,4.06
2023-03-29T02:47:06.088Z,4.00
2023-03-29T02:48:06.142Z,3.98
2023-03-29T02:49:06.066Z,4.01
2023-03-29T02:50:06.074Z,3.98
2023-03-29T02:51:06.071Z,4.04
2023-03-29T02:52:06.052Z,4.01
2023-03-29T02:53:06.055Z,4.07
2023-03-29T02:54:06.046Z,4.03
2023-03-29T02:55:06.043Z,3.90
2023-03-29T02:56:06.023Z,4.06
2023-03-29T02:57:06.076Z,3.97
2023-03-29T02:58:06.018Z,3.94
2023-03-29T02:59:07.006Z,3.89
2023-03-29T03:00:06.020Z,3.98
2023-03-29T03:01:05.991Z,3.94
2023-03-29T03:02:06.011Z,4.01
2023-03-29T03:03:06.074Z,3.92
2023-03-29T03:04:06.009Z,4.01
2023-03-29T03:05:05.965Z,3.98
2023-03-29T03:06:06.966Z,3.92
2023-03-29T03:07:05.977Z,4.00
2023-03-29T03:08:05.959Z,4.04
2023-03-29T03:09:05.948Z,4.03
2023-03-29T03:10:05.974Z,3.94
2023-03-29T03:11:05.979Z,4.03
2023-03-29T03:12:05.944Z,4.01
2023-03-29T03:13:05.908Z,4.06
2023-03-29T03:14:05.910Z,3.98
2023-03-29T03:15:05.907Z,4.03
2023-03-29T03:16:05.916Z,4.03
2023-03-29T03:17:05.882Z,4.00
2023-03-29T03:18:05.977Z,4.00
2023-03-29T03:19:05.896Z,4.00
2023-03-29T03:20:05.867Z,4.04
2023-03-29T03:21:05.857Z,4.07
2023-03-29T03:22:05.889Z,4.04
2023-03-29T03:23:05.845Z,4.07
2023-03-29T03:24:05.863Z,4.06
2023-03-29T03:25:05.829Z,4.19
2023-03-29T03:26:05.814Z,4.08
2023-03-29T03:27:05.810Z,4.06
2023-03-29T03:28:05.808Z,4.07
2023-03-29T03:29:06.021Z,4.03
2023-03-29T03:30:05.809Z,4.03
2023-03-29T03:31:05.809Z,4.04
2023-03-29T03:32:05.861Z,3.98
2023-03-29T03:33:05.828Z,4.08
2023-03-29T03:34:05.808Z,3.89
2023-03-29T03:35:05.769Z,4.01
2023-03-29T03:36:05.815Z,3.98
2023-03-29T03:37:05.786Z,3.94
2023-03-29T03:38:05.744Z,3.92
2023-03-29T03:39:05.771Z,3.94
2023-03-29T03:40:05.743Z,3.97
2023-03-29T03:41:06.087Z,3.94
2023-03-29T03:42:08.269Z,3.92
2023-03-29T03:43:06.720Z,3.89
2023-03-29T03:44:05.717Z,3.89
2023-03-29T03:45:05.705Z,3.89
2023-03-29T03:46:05.788Z,3.82
2023-03-29T03:47:05.721Z,3.96
2023-03-29T03:48:05.735Z,3.96
2023-03-29T03:49:05.715Z,3.86
2023-03-29T03:50:05.774Z,3.94
2023-03-29T03:51:05.681Z,3.89
2023-03-29T03:52:05.664Z,3.89
2023-03-29T03:53:05.666Z,3.89
2023-03-29T03:54:05.651Z,3.90
2023-03-29T03:55:05.658Z,3.97
2023-03-29T03:56:05.651Z,3.94
2023-03-29T03:57:05.668Z,4.00
2023-03-29T03:58:05.660Z,4.00
2023-03-29T03:59:05.652Z,3.94
2023-03-29T04:00:05.629Z,3.97
2023-03-29T04:01:05.625Z,4.01
2023-03-29T04:02:05.667Z,3.96
2023-03-29T04:03:05.761Z,3.92
2023-03-29T04:04:05.593Z,3.94
2023-03-29T04:05:05.575Z,3.97
2023-03-29T04:06:05.631Z,3.90
2023-03-29T04:07:05.562Z,3.82
2023-03-29T04:08:05.595Z,3.98
2023-03-29T04:09:05.549Z,3.88
2023-03-29T04:10:05.542Z,3.90
2023-03-29T04:11:05.542Z,3.94
2023-03-29T04:12:05.530Z,3.90
2023-03-29T04:13:05.527Z,3.94
2023-03-29T04:14:05.512Z,3.97
2023-03-29T04:15:05.503Z,3.88
2023-03-29T04:16:05.559Z,4.00
2023-03-29T04:17:05.489Z,4.04
2023-03-29T04:18:05.575Z,3.98
2023-03-29T04:19:05.513Z,4.04
2023-03-29T04:20:05.457Z,3.88
2023-03-29T04:21:05.480Z,3.97
2023-03-29T04:22:05.498Z,3.96
2023-03-29T04:23:05.464Z,3.98
2023-03-29T04:24:05.449Z,3.97
2023-03-29T04:25:05.453Z,4.06
2023-03-29T04:26:05.471Z,4.06
2023-03-29T04:27:05.435Z,4.06
2023-03-29T04:28:05.426Z,4.06
2023-03-29T04:29:05.436Z,3.94
2023-03-29T04:30:05.411Z,4.01
2023-03-29T04:31:05.674Z,3.98
2023-03-29T04:32:05.436Z,3.94
2023-03-29T04:33:05.486Z,3.88
2023-03-29T04:34:05.421Z,3.96
2023-03-29T04:35:05.452Z,4.00
2023-03-29T04:36:05.392Z,3.98
2023-03-29T04:37:05.424Z,4.03
2023-03-29T04:38:05.379Z,3.92
2023-03-29T04:39:05.351Z,3.97
2023-03-29T04:40:05.698Z,3.90
2023-03-29T04:41:05.339Z,3.94
2023-03-29T04:42:05.377Z,3.92
2023-03-29T04:43:05.366Z,4.03
2023-03-29T04:44:05.343Z,3.97
2023-03-29T04:45:05.454Z,3.98
2023-03-29T04:46:05.372Z,4.06
2023-03-29T04:47:05.310Z,3.94
2023-03-29T04:48:05.344Z,3.94
2023-03-29T04:49:05.292Z,4.04
2023-03-29T04:50:05.292Z,4.08
2023-03-29T04:51:05.274Z,4.00
2023-03-29T04:52:05.281Z,4.08
2023-03-29T04:53:05.283Z,4.10
2023-03-29T04:54:05.263Z,4.06
2023-03-29T04:55:05.288Z,4.07
2023-03-29T04:56:05.270Z,4.15
2023-03-29T04:57:05.307Z,4.18
2023-03-29T04:58:05.231Z,4.19
2023-03-29T04:59:05.257Z,4.14
2023-03-29T05:00:05.229Z,4.15
2023-03-29T05:01:05.257Z,4.16
2023-03-29T05:02:05.260Z,4.21
2023-03-29T05:03:05.221Z,4.18
2023-03-29T05:04:05.314Z,4.14
2023-03-29T05:05:05.187Z,4.16
2023-03-29T05:06:05.184Z,4.25
2023-03-29T05:07:05.178Z,4.19
2023-03-29T05:08:05.167Z,4.16
2023-03-29T05:09:05.163Z,4.24
2023-03-29T05:10:05.170Z,4.26
2023-03-29T05:11:05.163Z,4.18
2023-03-29T05:12:05.156Z,4.18
2023-03-29T05:13:05.135Z,4.15
2023-03-29T05:14:05.130Z,4.21
2023-03-29T05:15:05.128Z,4.29
2023-03-29T05:16:05.198Z,4.28
2023-03-29T05:17:05.168Z,4.22
2023-03-29T05:18:05.169Z,4.21
2023-03-29T05:19:05.098Z,4.33
2023-03-29T05:20:05.113Z,4.29
2023-03-29T05:21:05.253Z,4.25
2023-03-29T05:22:05.107Z,4.32
2023-03-29T05:23:05.135Z,4.33
2023-03-29T05:24:05.086Z,4.36
2023-03-29T05:25:05.053Z,4.37
2023-03-29T05:26:05.050Z,4.42
2023-03-29T05:27:05.123Z,4.36
2023-03-29T05:28:05.037Z,4.40
2023-03-29T05:29:05.100Z,4.43
2023-03-29T05:30:05.052Z,4.44
2023-03-29T05:31:05.263Z,4.44
2023-03-29T05:32:05.081Z,4.52
2023-03-29T05:33:05.024Z,4.46
2023-03-29T05:34:04.999Z,4.54
2023-03-29T05:35:05.053Z,4.69
2023-03-29T05:36:05.045Z,4.75
2023-03-29T05:37:04.975Z,4.69
2023-03-29T05:38:05.005Z,4.76
2023-03-29T05:39:04.960Z,4.79
2023-03-29T05:40:06.082Z,4.89
2023-03-29T05:41:04.952Z,4.91
2023-03-29T05:42:04.986Z,4.99
2023-03-29T05:43:04.951Z,4.95
2023-03-29T05:44:04.931Z,4.99
2023-03-29T05:45:04.937Z,5.02
2023-03-29T05:46:04.941Z,5.02
2023-03-29T05:47:04.919Z,4.92
2023-03-29T05:48:04.950Z,4.96
2023-03-29T05:49:04.914Z,4.98
2023-03-29T05:50:04.930Z,5.02
2023-03-29T05:51:05.091Z,4.99
2023-03-29T05:52:04.877Z,5.13
2023-03-29T05:53:04.877Z,5.17
2023-03-29T05:54:04.877Z,5.12
2023-03-29T05:55:04.852Z,5.12
2023-03-29T05:56:04.846Z,4.94
2023-03-29T05:57:04.869Z,5.01
2023-03-29T05:58:04.837Z,5.07
2023-03-29T05:59:04.858Z,4.95
2023-03-29T06:00:04.820Z,5.01
2023-03-29T06:01:04.916Z,4.88
2023-03-29T06:02:04.986Z,4.99
2023-03-29T06:03:14.098Z,4.94
2023-03-29T06:04:06.954Z,4.89
2023-03-29T06:05:04.821Z,4.96
2023-03-29T06:06:04.812Z,5.01
2023-03-29T06:07:04.776Z,5.07
2023-03-29T06:08:04.771Z,4.95
2023-03-29T06:09:04.768Z,5.14
2023-03-29T06:10:04.790Z,5.22
2023-03-29T06:11:05.396Z,5.31
2023-03-29T06:12:05.750Z,5.28
2023-03-29T06:13:04.741Z,5.46
2023-03-29T06:14:04.750Z,5.38
2023-03-29T06:15:04.753Z,5.38
2023-03-29T06:16:04.734Z,5.40
2023-03-29T06:17:04.756Z,5.31
2023-03-29T06:18:04.785Z,5.20
2023-03-29T06:19:04.704Z,5.17
2023-03-29T06:20:04.715Z,5.04
2023-03-29T06:21:05.020Z,5.17
2023-03-29T06:22:04.683Z,5.09
2023-03-29T06:23:05.686Z,5.12
2023-03-29T06:24:04.674Z,5.04
2023-03-29T06:25:04.668Z,5.01
2023-03-29T06:26:04.676Z,4.99
2023-03-29T06:27:04.651Z,4.94
2023-03-29T06:28:04.640Z,4.98
2023-03-29T06:29:04.642Z,4.99
2023-03-29T06:30:04.635Z,4.96
2023-03-29T06:31:04.799Z,4.95
2023-03-29T06:32:04.636Z,5.04
2023-03-29T06:33:04.678Z,4.99
2023-03-29T06:34:04.648Z,5.13
2023-03-29T06:35:04.643Z,5.20
2023-03-29T06:36:04.649Z,5.34
2023-03-29T06:37:04.617Z,5.55
2023-03-29T06:38:04.622Z,5.60
2023-03-29T06:39:04.623Z,5.64
2023-03-29T06:40:04.605Z,5.50
2023-03-29T06:41:04.687Z,5.46
2023-03-29T06:42:12.990Z,5.35
2023-03-29T06:43:06.544Z,5.20
2023-03-29T06:44:04.575Z,5.17
2023-03-29T06:45:04.598Z,5.23
2023-03-29T06:46:04.574Z,5.19
2023-03-29T06:47:04.536Z,5.27
2023-03-29T06:48:04.648Z,5.22
2023-03-29T06:49:04.518Z,5.27
2023-03-29T06:50:04.505Z,5.35
2023-03-29T06:51:04.689Z,5.30
2023-03-29T06:52:04.502Z,5.28
2023-03-29T06:53:04.532Z,5.34
2023-03-29T06:54:04.483Z,5.48
2023-03-29T06:55:04.476Z,5.50
2023-03-29T06:56:04.479Z,5.66
2023-03-29T06:57:04.500Z,5.70
2023-03-29T06:58:04.488Z,5.66
2023-03-29T06:59:04.643Z,5.73
2023-03-29T07:00:04.436Z,5.73
2023-03-29T07:01:04.862Z,5.81
2023-03-29T07:02:04.488Z,5.89
2023-03-29T07:03:04.469Z,5.83
2023-03-29T07:04:04.493Z,5.78
2023-03-29T07:05:04.416Z,5.68
2023-03-29T07:06:04.463Z,5.71
2023-03-29T07:07:04.399Z,5.74
2023-03-29T07:08:04.403Z,5.66
2023-03-29T07:09:04.398Z,5.70
2023-03-29T07:10:04.405Z,5.77
2023-03-29T07:11:05.534Z,5.77
2023-03-29T07:12:04.361Z,5.89
2023-03-29T07:13:04.468Z,5.86
2023-03-29T07:14:04.381Z,5.91
2023-03-29T07:15:04.341Z,5.98
2023-03-29T07:16:04.373Z,5.96
2023-03-29T07:17:04.399Z,6.00
2023-03-29T07:18:04.374Z,6.11
2023-03-29T07:19:04.331Z,6.11
2023-03-29T07:20:04.332Z,6.03
2023-03-29T07:21:04.606Z,6.26
2023-03-29T07:22:04.310Z,6.07
2023-03-29T07:23:04.294Z,6.14
2023-03-29T07:24:04.321Z,6.03
2023-03-29T07:25:04.300Z,6.03
2023-03-29T07:26:04.276Z,6.01
2023-03-29T07:27:04.929Z,5.93
2023-03-29T07:28:05.267Z,5.85
2023-03-29T07:29:04.317Z,5.85
2023-03-29T07:30:04.293Z,5.93
2023-03-29T07:31:04.422Z,5.86
2023-03-29T07:32:04.234Z,5.96
2023-03-29T07:33:04.295Z,6.00
2023-03-29T07:34:04.227Z,6.04
2023-03-29T07:35:04.504Z,6.14
2023-03-29T07:36:04.302Z,6.14
2023-03-29T07:37:04.205Z,6.21
2023-03-29T07:38:04.235Z,6.14
2023-03-29T07:39:04.213Z,6.18
2023-03-29T07:40:04.210Z,6.28
2023-03-29T07:41:04.445Z,6.30
2023-03-29T07:42:04.170Z,6.35
2023-03-29T07:43:04.168Z,6.40
2023-03-29T07:44:04.495Z,6.38
2023-03-29T07:45:04.182Z,6.38
2023-03-29T07:46:04.217Z,6.35
2023-03-29T07:47:04.134Z,6.33
2023-03-29T07:48:04.208Z,6.47
2023-03-29T07:49:04.130Z,6.58
2023-03-29T07:50:04.111Z,6.61
2023-03-29T07:51:04.289Z,6.63
2023-03-29T07:52:04.116Z,6.73
2023-03-29T07:53:04.113Z,6.80
2023-03-29T07:54:04.102Z,6.84
2023-03-29T07:55:04.096Z,6.89
2023-03-29T07:56:04.105Z,7.01
2023-03-29T07:57:04.196Z,6.98
2023-03-29T07:58:04.079Z,6.95
2023-03-29T07:59:04.076Z,7.09
2023-03-29T08:00:04.066Z,7.24
2023-03-29T08:01:04.199Z,7.19
2023-03-29T08:02:04.070Z,7.32
2023-03-29T08:03:04.224Z,7.42
2023-03-29T08:04:04.154Z,7.50
2023-03-29T08:05:04.049Z,7.69
2023-03-29T08:06:04.023Z,7.50
2023-03-29T08:07:04.017Z,7.50
2023-03-29T08:08:04.011Z,7.59
2023-03-29T08:09:04.009Z,7.62
2023-03-29T08:10:03.988Z,7.75
2023-03-29T08:11:04.135Z,7.66
2023-03-29T08:12:03.975Z,7.56
2023-03-29T08:13:03.978Z,7.67
2023-03-29T08:14:03.969Z,7.63
2023-03-29T08:15:03.960Z,7.66
2023-03-29T08:16:03.943Z,7.53
2023-03-29T08:17:05.280Z,7.56
2023-03-29T08:18:03.958Z,7.58
2023-03-29T08:19:03.941Z,7.60
2023-03-29T08:20:03.931Z,7.42
2023-03-29T08:21:04.186Z,7.34
2023-03-29T08:22:03.936Z,7.50
2023-03-29T08:23:03.921Z,7.37
2023-03-29T08:24:03.905Z,7.38
2023-03-29T08:25:03.911Z,7.23
2023-03-29T08:26:03.886Z,7.32
2023-03-29T08:27:03.901Z,7.27
2023-03-29T08:28:03.875Z,7.35
2023-03-29T08:29:03.862Z,7.31
2023-03-29T08:30:03.861Z,7.26
2023-03-29T08:31:04.210Z,7.41
2023-03-29T08:32:03.841Z,7.41
2023-03-29T08:33:03.914Z,7.32
2023-03-29T08:34:03.846Z,7.35
2023-03-29T08:35:03.860Z,7.37
2023-03-29T08:36:03.877Z,7.45
2023-03-29T08:37:03.821Z,7.55
2023-03-29T08:38:03.805Z,7.42
2023-03-29T08:39:03.800Z,7.47
2023-03-29T08:40:03.800Z,7.55
2023-03-29T08:41:03.923Z,7.50
2023-03-29T08:42:03.770Z,7.45
2023-03-29T08:43:03.778Z,7.41
2023-03-29T08:44:03.751Z,7.34
2023-03-29T08:45:03.842Z,7.42
2023-03-29T08:46:03.853Z,7.45
2023-03-29T08:47:03.775Z,7.50
2023-03-29T08:48:03.809Z,7.63
2023-03-29T08:49:03.748Z,7.78
2023-03-29T08:50:03.713Z,7.78
2023-03-29T08:51:03.863Z,7.89
2023-03-29T08:52:03.707Z,7.96
2023-03-29T08:53:03.750Z,8.07
2023-03-29T08:54:03.697Z,8.11
2023-03-29T08:55:03.682Z,8.12
2023-03-29T08:56:03.717Z,8.17
2023-03-29T08:57:03.730Z,8.28
2023-03-29T08:58:03.689Z,8.37
2023-03-29T08:59:03.661Z,8.55
2023-03-29T09:00:03.652Z,8.53
2023-03-29T09:01:03.870Z,8.66
2023-03-29T09:02:03.673Z,8.78
2023-03-29T09:03:03.681Z,8.93
2023-03-29T09:04:03.804Z,8.96
2023-03-29T09:05:03.632Z,8.87
2023-03-29T09:06:03.637Z,8.93
2023-03-29T09:07:03.606Z,9.02
2023-03-29T09:08:03.596Z,9.35
2023-03-29T09:09:03.577Z,9.60
2023-03-29T09:10:03.598Z,9.68
2023-03-29T09:11:03.781Z,9.57
2023-03-29T09:12:03.622Z,9.58
2023-03-29T09:13:03.575Z,9.71
2023-03-29T09:14:03.541Z,9.71
2023-03-29T09:15:03.536Z,9.75
2023-03-29T09:16:03.574Z,9.75
2023-03-29T09:17:03.570Z,9.88
2023-03-29T09:18:03.663Z,9.89
2023-03-29T09:19:03.533Z,9.81
2023-03-29T09:20:03.498Z,9.78
2023-03-29T09:21:03.721Z,9.71
2023-03-29T09:22:03.524Z,9.79
2023-03-29T09:23:03.498Z,9.68
2023-03-29T09:24:03.487Z,9.56
2023-03-29T09:25:03.504Z,9.60
2023-03-29T09:26:03.473Z,9.61
2023-03-29T09:27:03.481Z,9.57
2023-03-29T09:28:03.442Z,9.42
2023-03-29T09:29:03.435Z,9.42
2023-03-29T09:30:03.440Z,9.48
2023-03-29T09:31:03.700Z,9.34
2023-03-29T09:32:03.509Z,9.34
2023-03-29T09:33:03.455Z,9.39
2023-03-29T09:34:03.467Z,9.35
2023-03-29T09:35:03.459Z,9.31
2023-03-29T09:36:03.521Z,9.39
2023-03-29T09:37:03.398Z,9.30
2023-03-29T09:38:03.387Z,9.24
2023-03-29T09:39:03.422Z,9.23
2023-03-29T09:40:05.093Z,9.21
2023-03-29T09:41:04.517Z,9.16
2023-03-29T09:42:03.363Z,9.21
2023-03-29T09:43:03.358Z,9.25
2023-03-29T09:44:03.367Z,9.28
2023-03-29T09:45:03.395Z,9.32
2023-03-29T09:46:03.444Z,9.24
2023-03-29T09:47:03.346Z,9.15
2023-03-29T09:48:03.358Z,9.23
2023-03-29T09:49:03.346Z,9.16
2023-03-29T09:50:03.316Z,9.13
2023-03-29T09:51:03.586Z,9.13
2023-03-29T09:52:03.290Z,9.13
2023-03-29T09:53:03.303Z,9.24
2023-03-29T09:54:03.286Z,9.28
2023-03-29T09:55:03.273Z,9.25
2023-03-29T09:56:03.315Z,9.15
2023-03-29T09:57:03.274Z,9.09
2023-03-29T09:58:03.279Z,9.23
2023-03-29T09:59:03.283Z,9.24
2023-03-29T10:00:03.242Z,9.28
2023-03-29T10:01:03.509Z,9.39
2023-03-29T10:02:03.243Z,9.48
2023-03-29T10:03:03.329Z,9.49
2023-03-29T10:04:03.311Z,9.67
2023-03-29T10:05:03.210Z,9.63
2023-03-29T10:06:03.209Z,9.50
2023-03-29T10:07:03.260Z,9.61
2023-03-29T10:08:03.204Z,9.64
2023-03-29T10:09:04.189Z,9.61
2023-03-29T10:10:03.193Z,9.67
2023-03-29T10:11:03.442Z,9.67
2023-03-29T10:12:03.184Z,9.70
2023-03-29T10:13:03.159Z,9.73
2023-03-29T10:14:03.162Z,9.78
2023-03-29T10:15:03.163Z,9.70
2023-03-29T10:16:03.197Z,9.56
2023-03-29T10:17:03.162Z,9.60
2023-03-29T10:18:03.294Z,9.67
2023-03-29T10:19:03.126Z,9.60
2023-03-29T10:20:04.354Z,9.58
2023-03-29T10:21:04.325Z,9.73
2023-03-29T10:22:04.125Z,9.82
2023-03-29T10:23:03.102Z,9.85
2023-03-29T10:24:03.087Z,9.89
2023-03-29T10:25:03.086Z,10.10
2023-03-29T10:26:03.067Z,10.01
2023-03-29T10:27:03.160Z,10.07
2023-03-29T10:28:03.060Z,10.12
2023-03-29T10:29:03.053Z,9.97
2023-03-29T10:30:03.055Z,9.99
2023-03-29T10:31:03.276Z,9.76
2023-03-29T10:32:03.076Z,9.66
2023-03-29T10:33:03.146Z,9.58
2023-03-29T10:34:03.019Z,9.68
2023-03-29T10:35:03.011Z,9.73
2023-03-29T10:36:03.064Z,9.70
2023-03-29T10:37:03.000Z,9.64
2023-03-29T10:38:03.071Z,9.71
2023-03-29T10:39:05.702Z,9.73
2023-03-29T10:40:03.988Z,9.67
2023-03-29T10:41:03.125Z,9.86
2023-03-29T10:42:02.979Z,9.79
2023-03-29T10:43:03.186Z,9.91
2023-03-29T10:44:02.958Z,10.01
2023-03-29T10:45:02.962Z,10.06
2023-03-29T10:46:03.008Z,9.94
2023-03-29T10:47:02.944Z,9.99
2023-03-29T10:48:02.970Z,9.94
2023-03-29T10:49:02.964Z,10.04
2023-03-29T10:50:02.947Z,9.96
2023-03-29T10:51:03.191Z,9.91
2023-03-29T10:52:02.945Z,9.94
2023-03-29T10:53:02.900Z,10.24
2023-03-29T10:54:02.900Z,10.30
2023-03-29T10:55:02.881Z,10.25
2023-03-29T10:56:02.908Z,10.14
2023-03-29T10:57:03.508Z,10.12
2023-03-29T10:58:02.889Z,10.22
2023-03-29T10:59:02.889Z,10.32
2023-03-29T11:00:02.865Z,10.28
2023-03-29T11:01:03.194Z,10.39
2023-03-29T11:02:02.947Z,10.47
2023-03-29T11:03:02.964Z,10.46
2023-03-29T11:04:02.919Z,10.58
2023-03-29T11:05:02.832Z,10.80
2023-03-29T11:06:02.826Z,10.92
2023-03-29T11:07:02.813Z,10.96
2023-03-29T11:08:02.809Z,11.02
2023-03-29T11:09:02.805Z,11.19
2023-03-29T11:10:02.800Z,11.20
2023-03-29T11:11:02.912Z,11.28
2023-03-29T11:12:14.979Z,11.39
2023-03-29T11:13:04.793Z,11.32
2023-03-29T11:14:02.769Z,11.35
2023-03-29T11:15:02.755Z,11.25
2023-03-29T11:16:02.853Z,11.13
2023-03-29T11:17:02.740Z,11.32
2023-03-29T11:18:02.767Z,11.29
2023-03-29T11:19:02.740Z,11.31
2023-03-29T11:20:05.082Z,11.20
2023-03-29T11:21:06.821Z,11.27
2023-03-29T11:22:03.730Z,11.19
2023-03-29T11:23:02.716Z,11.29
2023-03-29T11:24:02.712Z,11.35
2023-03-29T11:25:02.961Z,11.41
2023-03-29T11:26:02.719Z,11.46
2023-03-29T11:27:02.688Z,11.56
2023-03-29T11:28:02.682Z,11.77
2023-03-29T11:29:02.677Z,11.70
2023-03-29T11:30:02.701Z,11.90
2023-03-29T11:31:02.986Z,11.90
2023-03-29T11:32:02.716Z,11.86
2023-03-29T11:33:02.742Z,11.93
2023-03-29T11:34:02.672Z,11.80
2023-03-29T11:35:02.664Z,11.56
2023-03-29T11:36:02.643Z,11.43
2023-03-29T11:37:02.632Z,11.43
2023-03-29T11:38:02.621Z,11.31
2023-03-29T11:39:02.613Z,11.19
2023-03-29T11:40:02.647Z,11.36
2023-03-29T11:41:02.857Z,11.70
2023-03-29T11:42:03.602Z,11.83
2023-03-29T11:43:02.587Z,11.94
2023-03-29T11:44:02.580Z,12.19
2023-03-29T11:45:02.581Z,12.63
2023-03-29T11:46:02.598Z,13.29
2023-03-29T11:47:02.616Z,13.36
2023-03-29T11:48:02.577Z,12.97
2023-03-29T11:49:03.549Z,12.87
2023-03-29T11:50:02.560Z,12.99
2023-03-29T11:51:02.722Z,12.93
2023-03-29T11:52:02.534Z,13.14
2023-03-29T11:53:02.533Z,13.27
2023-03-29T11:54:02.533Z,12.95
2023-03-29T11:55:02.522Z,12.95
2023-03-29T11:56:02.528Z,12.96
2023-03-29T11:57:02.542Z,12.93
2023-03-29T11:58:02.497Z,12.95
2023-03-29T11:59:02.492Z,12.82
2023-03-29T12:00:02.487Z,12.66
2023-03-29T12:01:02.730Z,12.71
2023-03-29T12:02:02.605Z,12.97
2023-03-29T12:03:02.520Z,13.12
2023-03-29T12:04:02.589Z,13.11
2023-03-29T12:05:02.452Z,13.00
2023-03-29T12:06:02.433Z,13.27
2023-03-29T12:07:02.420Z,13.38
2023-03-29T12:08:02.431Z,12.93
2023-03-29T12:09:02.421Z,12.75
2023-03-29T12:10:02.405Z,12.74
2023-03-29T12:11:02.511Z,12.77
2023-03-29T12:12:02.397Z,12.81
2023-03-29T12:13:02.384Z,12.84
2023-03-29T12:14:02.429Z,13.00
2023-03-29T12:15:02.398Z,12.97
2023-03-29T12:16:02.371Z,12.95
2023-03-29T12:17:02.417Z,13.22
2023-03-29T12:18:02.416Z,13.36
2023-03-29T12:19:02.365Z,13.49
2023-03-29T12:20:02.349Z,13.22
2023-03-29T12:21:02.323Z,13.27
2023-03-29T12:22:02.327Z,13.17
2023-03-29T12:23:02.356Z,13.18
2023-03-29T12:24:02.308Z,13.40
2023-03-29T12:25:02.303Z,13.56
2023-03-29T12:26:02.295Z,13.52
2023-03-29T12:27:02.288Z,13.41
2023-03-29T12:28:02.278Z,13.46
2023-03-29T12:29:02.283Z,13.37
2023-03-29T12:30:02.264Z,13.37
2023-03-29T12:31:02.431Z,13.46
2023-03-29T12:32:02.344Z,13.84
2023-03-29T12:33:02.287Z,13.77
2023-03-29T12:34:02.233Z,13.67
2023-03-29T12:35:02.233Z,13.88
2023-03-29T12:36:02.261Z,13.94
2023-03-29T12:37:02.228Z,13.87
2023-03-29T12:38:02.206Z,13.62
2023-03-29T12:39:02.217Z,13.61
2023-03-29T12:40:02.212Z,13.63
2023-03-29T12:41:02.378Z,13.70
2023-03-29T12:42:02.176Z,13.69
2023-03-29T12:43:02.160Z,13.59
2023-03-29T12:44:02.179Z,13.33
2023-03-29T12:45:02.164Z,13.38
2023-03-29T12:46:02.520Z,13.52
2023-03-29T12:47:02.143Z,13.61
2023-03-29T12:48:02.164Z,13.77
2023-03-29T12:49:02.129Z,14.38
2023-03-29T12:50:02.114Z,14.87
2023-03-29T12:51:02.145Z,15.38
2023-03-29T12:52:02.108Z,15.72
2023-03-29T12:53:02.106Z,15.60
2023-03-29T12:54:02.099Z,15.45
2023-03-29T12:55:02.094Z,15.15
2023-03-29T12:56:02.273Z,14.99
2023-03-29T12:57:02.122Z,15.03
2023-03-29T12:58:02.053Z,14.87
2023-03-29T12:59:02.058Z,15.02
2023-03-29T13:00:02.049Z,14.62
2023-03-29T13:01:04.288Z,14.46
2023-03-29T13:02:02.101Z,14.62
2023-03-29T13:03:02.065Z,14.86
2023-03-29T13:04:02.049Z,14.94
2023-03-29T13:05:02.091Z,14.68
2023-03-29T13:06:02.278Z,14.78
2023-03-29T13:07:02.004Z,15.26
2023-03-29T13:08:01.998Z,15.08
2023-03-29T13:09:03.000Z,15.48
2023-03-29T13:10:01.979Z,15.67
2023-03-29T13:11:01.985Z,15.74
2023-03-29T13:12:01.986Z,15.68
2023-03-29T13:13:01.989Z,15.61